VOE1WB LFST-EDDB
Flight info
| Callsign | VOE1WB |
|---|---|
| Flight time | 0h 55m |
| Altitude | 23000 |
| Route | SUL Y710 ESULI/N0455F340 Y710 SUDEN Z79 GUPIN/N0456F350 N869 ANELA Z715 ERETO DCT TABAT/N0455F310 T202 MILGU/N0439F270 T202 ATGUP ATGUP1R |
| Aircraft | A320/M-SDE3FGHIRWY/LB1 |
Departure
| Time | 2026-05-07 09:37 |
|---|---|
| Airport | Strasbourg Airport (LFST) |
Arrival
| Time | 2026-05-07 10:32 |
|---|---|
| Airport | Berlin Brandenburg Airport (EDDB) |
| Time | Latitude | Longitude | Altitude | Speed | Heading |
|---|---|---|---|---|---|
| 2026-05-07 09:08 | 48.54452 | 7.62905 | 512 ft | 0 kts | 303° |
| 2026-05-07 09:30 | 48.54451 | 7.62908 | 512 ft | 2 kts | 303° |
| 2026-05-07 09:30 | 48.54437 | 7.62940 | 512 ft | 4 kts | 303° |
| 2026-05-07 09:30 | 48.54422 | 7.62974 | 512 ft | 4 kts | 303° |
| 2026-05-07 09:31 | 48.54409 | 7.63002 | 512 ft | 4 kts | 293° |
| 2026-05-07 09:31 | 48.54407 | 7.63033 | 512 ft | 4 kts | 224° |
| 2026-05-07 09:31 | 48.54429 | 7.63050 | 512 ft | 4 kts | 196° |
| 2026-05-07 09:31 | 48.54443 | 7.63056 | 512 ft | 0 kts | 196° |
| 2026-05-07 09:33 | 48.54441 | 7.63055 | 512 ft | 2 kts | 196° |
| 2026-05-07 09:33 | 48.54373 | 7.63081 | 512 ft | 19 kts | 137° |
| 2026-05-07 09:34 | 48.54253 | 7.63149 | 513 ft | 20 kts | 212° |
| 2026-05-07 09:34 | 48.54156 | 7.62983 | 512 ft | 21 kts | 229° |
| 2026-05-07 09:34 | 48.54056 | 7.62812 | 512 ft | 23 kts | 229° |
| 2026-05-07 09:34 | 48.53948 | 7.62628 | 512 ft | 24 kts | 228° |
| 2026-05-07 09:35 | 48.53838 | 7.62441 | 512 ft | 25 kts | 228° |
| 2026-05-07 09:35 | 48.53724 | 7.62244 | 512 ft | 25 kts | 231° |
| 2026-05-07 09:35 | 48.53604 | 7.62038 | 512 ft | 26 kts | 229° |
| 2026-05-07 09:35 | 48.53484 | 7.61833 | 512 ft | 27 kts | 229° |
| 2026-05-07 09:36 | 48.53360 | 7.61621 | 512 ft | 27 kts | 229° |
| 2026-05-07 09:36 | 48.53238 | 7.61483 | 512 ft | 19 kts | 169° |
| 2026-05-07 09:36 | 48.53145 | 7.61606 | 512 ft | 16 kts | 108° |
| 2026-05-07 09:36 | 48.53199 | 7.61740 | 511 ft | 19 kts | 48° |
| 2026-05-07 09:37 | 48.53415 | 7.62109 | 511 ft | 82 kts | 48° |
| 2026-05-07 09:37 | 48.53933 | 7.62999 | 511 ft | 141 kts | 48° |
| 2026-05-07 09:37 | 48.54625 | 7.64167 | 1010 ft | 142 kts | 47° |
| 2026-05-07 09:37 | 48.55268 | 7.65260 | 1626 ft | 139 kts | 47° |
| 2026-05-07 09:38 | 48.55904 | 7.66395 | 2047 ft | 143 kts | 47° |
| 2026-05-07 09:38 | 48.56580 | 7.67607 | 2284 ft | 163 kts | 47° |
| 2026-05-07 09:38 | 48.57369 | 7.69014 | 2428 ft | 192 kts | 48° |
| 2026-05-07 09:38 | 48.58286 | 7.70648 | 2723 ft | 216 kts | 48° |
| 2026-05-07 09:39 | 48.59315 | 7.72478 | 3083 ft | 241 kts | 48° |
| 2026-05-07 09:39 | 48.60450 | 7.74497 | 3585 ft | 261 kts | 48° |
| 2026-05-07 09:39 | 48.61640 | 7.76617 | 4408 ft | 268 kts | 48° |
| 2026-05-07 09:39 | 48.62856 | 7.78781 | 5297 ft | 272 kts | 48° |
| 2026-05-07 09:40 | 48.64093 | 7.80976 | 6179 ft | 276 kts | 48° |
| 2026-05-07 09:40 | 48.65348 | 7.83203 | 7010 ft | 280 kts | 48° |
| 2026-05-07 09:40 | 48.66620 | 7.85462 | 7810 ft | 285 kts | 47° |
| 2026-05-07 09:40 | 48.67915 | 7.87768 | 8636 ft | 290 kts | 48° |
| 2026-05-07 09:41 | 48.69223 | 7.90108 | 9567 ft | 293 kts | 48° |
| 2026-05-07 09:41 | 48.70548 | 7.92493 | 10321 ft | 303 kts | 50° |
| 2026-05-07 09:41 | 48.71504 | 7.95452 | 10619 ft | 328 kts | 79° |
| 2026-05-07 09:41 | 48.71427 | 7.98994 | 10841 ft | 350 kts | 107° |
| 2026-05-07 09:42 | 48.70307 | 8.02370 | 10990 ft | 371 kts | 127° |
| 2026-05-07 09:42 | 48.68597 | 8.05418 | 11186 ft | 388 kts | 135° |
| 2026-05-07 09:42 | 48.66671 | 8.08328 | 11748 ft | 394 kts | 136° |
| 2026-05-07 09:42 | 48.64744 | 8.11293 | 12398 ft | 398 kts | 134° |
| 2026-05-07 09:43 | 48.62888 | 8.14428 | 13030 ft | 402 kts | 131° |
| 2026-05-07 09:43 | 48.61121 | 8.17731 | 13717 ft | 406 kts | 129° |
| 2026-05-07 09:43 | 48.59418 | 8.21157 | 14287 ft | 410 kts | 127° |
| 2026-05-07 09:43 | 48.57739 | 8.24676 | 14843 ft | 414 kts | 126° |
| 2026-05-07 09:44 | 48.56064 | 8.28226 | 15374 ft | 418 kts | 126° |
| 2026-05-07 09:44 | 48.54358 | 8.31814 | 15912 ft | 422 kts | 127° |
| 2026-05-07 09:44 | 48.52625 | 8.35402 | 16436 ft | 425 kts | 127° |
| 2026-05-07 09:44 | 48.50858 | 8.38999 | 16966 ft | 428 kts | 127° |
| 2026-05-07 09:45 | 48.49066 | 8.42599 | 17470 ft | 432 kts | 128° |
| 2026-05-07 09:45 | 48.47250 | 8.46227 | 17947 ft | 435 kts | 128° |
| 2026-05-07 09:45 | 48.45417 | 8.49885 | 18408 ft | 439 kts | 128° |
| 2026-05-07 09:45 | 48.43574 | 8.53573 | 18829 ft | 442 kts | 127° |
| 2026-05-07 09:46 | 48.41778 | 8.57344 | 19242 ft | 445 kts | 122° |
| 2026-05-07 09:46 | 48.40368 | 8.61493 | 19647 ft | 447 kts | 111° |
| 2026-05-07 09:46 | 48.39452 | 8.65964 | 20051 ft | 448 kts | 101° |
| 2026-05-07 09:46 | 48.39047 | 8.70619 | 20462 ft | 449 kts | 91° |
| 2026-05-07 09:47 | 48.39167 | 8.75303 | 20849 ft | 449 kts | 81° |
| 2026-05-07 09:47 | 48.39599 | 8.79966 | 21222 ft | 451 kts | 80° |
| 2026-05-07 09:47 | 48.40030 | 8.84643 | 21575 ft | 453 kts | 81° |
| 2026-05-07 09:47 | 48.40456 | 8.89350 | 21922 ft | 455 kts | 81° |
| 2026-05-07 09:48 | 48.40878 | 8.94078 | 22277 ft | 457 kts | 81° |
| 2026-05-07 09:48 | 48.41301 | 8.98825 | 22631 ft | 459 kts | 81° |
| 2026-05-07 09:48 | 48.41728 | 9.03590 | 22964 ft | 461 kts | 81° |
| 2026-05-07 09:48 | 48.42150 | 9.08326 | 23300 ft | 463 kts | 81° |
| 2026-05-07 09:49 | 48.42577 | 9.13133 | 23613 ft | 465 kts | 81° |
| 2026-05-07 09:49 | 48.43053 | 9.17948 | 23861 ft | 465 kts | 76° |
| 2026-05-07 09:49 | 48.43930 | 9.22692 | 24118 ft | 464 kts | 68° |
| 2026-05-07 09:49 | 48.45239 | 9.27122 | 24365 ft | 463 kts | 59° |
| 2026-05-07 09:50 | 48.46884 | 9.31277 | 24612 ft | 463 kts | 56° |
| 2026-05-07 09:50 | 48.48571 | 9.35427 | 24820 ft | 464 kts | 56° |
| 2026-05-07 09:50 | 48.50243 | 9.39524 | 25057 ft | 465 kts | 54° |
| 2026-05-07 09:50 | 48.52195 | 9.43392 | 25275 ft | 463 kts | 46° |
| 2026-05-07 09:51 | 48.54498 | 9.46747 | 25561 ft | 459 kts | 37° |
| 2026-05-07 09:51 | 48.57095 | 9.49519 | 25877 ft | 456 kts | 29° |
| 2026-05-07 09:51 | 48.58972 | 9.51070 | 26108 ft | 454 kts | 26° |
| 2026-05-07 09:51 | 48.61758 | 9.53297 | 26428 ft | 454 kts | 26° |
| 2026-05-07 09:52 | 48.65443 | 9.56266 | 26872 ft | 452 kts | 26° |
| 2026-05-07 09:52 | 48.68212 | 9.58510 | 27217 ft | 451 kts | 26° |
| 2026-05-07 09:52 | 48.70974 | 9.60753 | 27551 ft | 451 kts | 26° |
| 2026-05-07 09:52 | 48.72843 | 9.62272 | 27784 ft | 450 kts | 26° |
| 2026-05-07 09:53 | 48.75593 | 9.64506 | 28135 ft | 448 kts | 26° |
| 2026-05-07 09:53 | 48.78342 | 9.66733 | 28489 ft | 447 kts | 26° |
| 2026-05-07 09:53 | 48.81077 | 9.68952 | 28837 ft | 445 kts | 26° |
| 2026-05-07 09:53 | 48.83804 | 9.71164 | 29182 ft | 444 kts | 26° |
| 2026-05-07 09:54 | 48.86474 | 9.73513 | 29532 ft | 444 kts | 32° |
| 2026-05-07 09:54 | 48.88893 | 9.76434 | 29887 ft | 445 kts | 41° |
| 2026-05-07 09:54 | 48.90993 | 9.79895 | 30229 ft | 446 kts | 49° |
| 2026-05-07 09:54 | 48.92936 | 9.83567 | 30472 ft | 447 kts | 49° |
| 2026-05-07 09:55 | 48.94894 | 9.87246 | 30697 ft | 448 kts | 49° |
| 2026-05-07 09:55 | 48.96861 | 9.90928 | 30915 ft | 449 kts | 49° |
| 2026-05-07 09:55 | 48.98832 | 9.94615 | 31129 ft | 450 kts | 49° |
| 2026-05-07 09:55 | 49.00810 | 9.98325 | 31351 ft | 452 kts | 49° |
| 2026-05-07 09:56 | 49.02789 | 10.02053 | 31571 ft | 453 kts | 49° |
| 2026-05-07 09:56 | 49.04770 | 10.05791 | 31800 ft | 454 kts | 49° |
| 2026-05-07 09:56 | 49.06759 | 10.09543 | 32036 ft | 456 kts | 49° |
| 2026-05-07 09:56 | 49.08751 | 10.13310 | 32281 ft | 457 kts | 50° |
| 2026-05-07 09:57 | 49.10746 | 10.17096 | 32535 ft | 458 kts | 50° |
| 2026-05-07 09:57 | 49.12720 | 10.20850 | 32778 ft | 460 kts | 50° |
| 2026-05-07 09:57 | 49.14784 | 10.24597 | 32940 ft | 462 kts | 45° |
| 2026-05-07 09:57 | 49.17040 | 10.28109 | 33101 ft | 464 kts | 44° |
| 2026-05-07 09:58 | 49.19340 | 10.31676 | 33305 ft | 466 kts | 44° |
| 2026-05-07 09:58 | 49.21586 | 10.35166 | 33523 ft | 467 kts | 45° |
| 2026-05-07 09:58 | 49.23866 | 10.38705 | 33733 ft | 468 kts | 45° |
| 2026-05-07 09:58 | 49.26165 | 10.42246 | 33961 ft | 469 kts | 44° |
| 2026-05-07 09:59 | 49.28489 | 10.45789 | 34013 ft | 474 kts | 44° |
| 2026-05-07 09:59 | 49.33189 | 10.52926 | 34007 ft | 477 kts | 44° |
| 2026-05-07 10:00 | 49.37850 | 10.60161 | 34008 ft | 477 kts | 46° |
| 2026-05-07 10:00 | 49.42399 | 10.67587 | 34009 ft | 477 kts | 46° |
| 2026-05-07 10:01 | 49.46985 | 10.74976 | 34011 ft | 477 kts | 45° |
| 2026-05-07 10:01 | 49.51633 | 10.82275 | 33991 ft | 478 kts | 45° |
| 2026-05-07 10:02 | 49.56295 | 10.89581 | 33992 ft | 479 kts | 46° |
| 2026-05-07 10:02 | 49.60942 | 10.96943 | 33989 ft | 480 kts | 46° |
| 2026-05-07 10:03 | 49.65581 | 11.04350 | 33984 ft | 480 kts | 46° |
| 2026-05-07 10:03 | 49.70217 | 11.11764 | 33983 ft | 480 kts | 46° |
| 2026-05-07 10:04 | 49.74851 | 11.19198 | 33979 ft | 481 kts | 46° |
| 2026-05-07 10:04 | 49.79924 | 11.25898 | 33967 ft | 481 kts | 36° |
| 2026-05-07 10:05 | 49.85333 | 11.31994 | 33965 ft | 481 kts | 36° |
| 2026-05-07 10:05 | 49.90834 | 11.37876 | 33963 ft | 480 kts | 28° |
| 2026-05-07 10:06 | 49.97064 | 11.41466 | 33963 ft | 478 kts | 10° |
| 2026-05-07 10:06 | 50.03643 | 11.42850 | 33957 ft | 477 kts | 6° |
| 2026-05-07 10:07 | 50.10227 | 11.44142 | 33947 ft | 477 kts | 6° |
| 2026-05-07 10:07 | 50.16820 | 11.45431 | 33947 ft | 477 kts | 6° |
| 2026-05-07 10:08 | 50.23407 | 11.46717 | 33945 ft | 477 kts | 6° |
| 2026-05-07 10:08 | 50.29996 | 11.48016 | 33948 ft | 477 kts | 6° |
| 2026-05-07 10:09 | 50.36582 | 11.49312 | 33955 ft | 477 kts | 6° |
| 2026-05-07 10:09 | 50.43160 | 11.50607 | 33961 ft | 476 kts | 6° |
| 2026-05-07 10:10 | 50.49729 | 11.51909 | 33965 ft | 476 kts | 6° |
| 2026-05-07 10:10 | 50.56119 | 11.54490 | 33954 ft | 477 kts | 23° |
| 2026-05-07 10:11 | 50.61787 | 11.59872 | 33967 ft | 477 kts | 36° |
| 2026-05-07 10:11 | 50.67142 | 11.66040 | 33961 ft | 477 kts | 36° |
| 2026-05-07 10:12 | 50.72511 | 11.72197 | 33958 ft | 477 kts | 36° |
| 2026-05-07 10:12 | 50.77879 | 11.78358 | 33953 ft | 477 kts | 36° |
| 2026-05-07 10:13 | 50.83248 | 11.84548 | 33949 ft | 478 kts | 36° |
| 2026-05-07 10:13 | 50.88618 | 11.90765 | 33947 ft | 479 kts | 36° |
| 2026-05-07 10:14 | 50.93993 | 11.97012 | 33957 ft | 479 kts | 36° |
| 2026-05-07 10:14 | 50.99369 | 12.03279 | 33964 ft | 480 kts | 37° |
| 2026-05-07 10:15 | 51.04747 | 12.09565 | 33967 ft | 480 kts | 37° |
| 2026-05-07 10:15 | 51.10121 | 12.15864 | 33973 ft | 480 kts | 37° |
| 2026-05-07 10:16 | 51.15492 | 12.22183 | 33969 ft | 480 kts | 37° |
| 2026-05-07 10:16 | 51.20869 | 12.28518 | 33988 ft | 481 kts | 37° |
| 2026-05-07 10:17 | 51.26206 | 12.34826 | 33972 ft | 480 kts | 37° |
| 2026-05-07 10:17 | 51.31483 | 12.41339 | 33993 ft | 479 kts | 43° |
| 2026-05-07 10:18 | 51.36067 | 12.49022 | 34018 ft | 477 kts | 47° |
| 2026-05-07 10:18 | 51.40595 | 12.56763 | 33288 ft | 475 kts | 48° |
| 2026-05-07 10:18 | 51.42852 | 12.60625 | 32477 ft | 473 kts | 48° |
| 2026-05-07 10:19 | 51.45066 | 12.64496 | 31690 ft | 470 kts | 51° |
| 2026-05-07 10:19 | 51.46958 | 12.68664 | 30923 ft | 454 kts | 60° |
| 2026-05-07 10:19 | 51.48420 | 12.73038 | 30183 ft | 438 kts | 66° |
| 2026-05-07 10:19 | 51.49697 | 12.77398 | 29343 ft | 425 kts | 66° |
| 2026-05-07 10:20 | 51.51073 | 12.81551 | 28494 ft | 426 kts | 55° |
| 2026-05-07 10:20 | 51.53153 | 12.85054 | 27666 ft | 443 kts | 38° |
| 2026-05-07 10:20 | 51.55820 | 12.87442 | 26865 ft | 434 kts | 20° |
| 2026-05-07 10:20 | 51.58723 | 12.88398 | 26093 ft | 421 kts | 1° |
| 2026-05-07 10:21 | 51.61616 | 12.88190 | 25341 ft | 411 kts | 355° |
| 2026-05-07 10:21 | 51.64435 | 12.87794 | 24607 ft | 403 kts | 355° |
| 2026-05-07 10:21 | 51.67204 | 12.87401 | 23890 ft | 396 kts | 355° |
| 2026-05-07 10:21 | 51.69930 | 12.87022 | 23118 ft | 390 kts | 355° |
| 2026-05-07 10:22 | 51.72607 | 12.86687 | 22291 ft | 384 kts | 359° |
| 2026-05-07 10:22 | 51.75230 | 12.87257 | 21499 ft | 379 kts | 19° |
| 2026-05-07 10:22 | 51.77648 | 12.88873 | 20725 ft | 374 kts | 24° |
| 2026-05-07 10:22 | 51.79996 | 12.90633 | 19965 ft | 370 kts | 25° |
| 2026-05-07 10:23 | 51.82313 | 12.92397 | 19234 ft | 366 kts | 25° |
| 2026-05-07 10:23 | 51.84616 | 12.94105 | 18506 ft | 361 kts | 25° |
| 2026-05-07 10:23 | 51.86886 | 12.95767 | 17732 ft | 356 kts | 25° |
| 2026-05-07 10:23 | 51.89119 | 12.97405 | 16924 ft | 350 kts | 25° |
| 2026-05-07 10:24 | 51.91327 | 12.99030 | 16154 ft | 347 kts | 25° |
| 2026-05-07 10:24 | 51.93512 | 13.00634 | 15398 ft | 344 kts | 25° |
| 2026-05-07 10:24 | 51.95684 | 13.02240 | 14653 ft | 342 kts | 25° |
| 2026-05-07 10:24 | 51.97840 | 13.03842 | 13931 ft | 340 kts | 25° |
| 2026-05-07 10:25 | 51.99977 | 13.05433 | 13147 ft | 336 kts | 25° |
| 2026-05-07 10:25 | 52.02093 | 13.07028 | 12381 ft | 333 kts | 25° |
| 2026-05-07 10:25 | 52.04179 | 13.08614 | 11658 ft | 330 kts | 25° |
| 2026-05-07 10:25 | 52.06237 | 13.10197 | 10949 ft | 325 kts | 25° |
| 2026-05-07 10:26 | 52.08248 | 13.11766 | 10270 ft | 316 kts | 25° |
| 2026-05-07 10:26 | 52.10197 | 13.13309 | 9588 ft | 307 kts | 25° |
| 2026-05-07 10:26 | 52.12089 | 13.14805 | 8871 ft | 299 kts | 25° |
| 2026-05-07 10:26 | 52.13945 | 13.16256 | 8184 ft | 292 kts | 25° |
| 2026-05-07 10:27 | 52.15751 | 13.17651 | 7548 ft | 284 kts | 25° |
| 2026-05-07 10:27 | 52.17521 | 13.19001 | 6919 ft | 277 kts | 25° |
| 2026-05-07 10:27 | 52.19253 | 13.20307 | 6306 ft | 271 kts | 25° |
| 2026-05-07 10:27 | 52.20951 | 13.21574 | 5672 ft | 265 kts | 25° |
| 2026-05-07 10:28 | 52.22615 | 13.22808 | 5056 ft | 260 kts | 25° |
| 2026-05-07 10:28 | 52.24242 | 13.24024 | 4489 ft | 254 kts | 25° |
| 2026-05-07 10:28 | 52.25825 | 13.25202 | 3967 ft | 246 kts | 25° |
| 2026-05-07 10:28 | 52.27363 | 13.26320 | 3508 ft | 237 kts | 25° |
| 2026-05-07 10:29 | 52.28836 | 13.27384 | 3098 ft | 226 kts | 30° |
| 2026-05-07 10:29 | 52.30044 | 13.28960 | 2618 ft | 221 kts | 51° |
| 2026-05-07 10:29 | 52.30781 | 13.31096 | 2291 ft | 212 kts | 68° |
| 2026-05-07 10:30 | 52.31749 | 13.35155 | 1758 ft | 172 kts | 67° |
| 2026-05-07 10:30 | 52.32163 | 13.36885 | 1525 ft | 157 kts | 67° |
| 2026-05-07 10:30 | 52.32549 | 13.38496 | 1313 ft | 144 kts | 66° |
| 2026-05-07 10:30 | 52.32899 | 13.39962 | 1114 ft | 134 kts | 67° |
| 2026-05-07 10:31 | 52.33233 | 13.41358 | 925 ft | 131 kts | 68° |
| 2026-05-07 10:31 | 52.33566 | 13.42752 | 743 ft | 131 kts | 67° |
| 2026-05-07 10:31 | 52.33896 | 13.44125 | 567 ft | 129 kts | 67° |
| 2026-05-07 10:31 | 52.34220 | 13.45482 | 388 ft | 128 kts | 67° |
| 2026-05-07 10:32 | 52.34541 | 13.46831 | 205 ft | 127 kts | 67° |
| 2026-05-07 10:32 | 52.34839 | 13.48094 | 154 ft | 103 kts | 68° |
| 2026-05-07 10:32 | 52.35037 | 13.48921 | 154 ft | 53 kts | 69° |
| 2026-05-07 10:32 | 52.35135 | 13.49339 | 158 ft | 35 kts | 69° |
| 2026-05-07 10:33 | 52.35219 | 13.49687 | 154 ft | 32 kts | 68° |
| 2026-05-07 10:33 | 52.35350 | 13.49962 | 154 ft | 30 kts | 39° |
| 2026-05-07 10:33 | 52.35511 | 13.50176 | 154 ft | 29 kts | 38° |
| 2026-05-07 10:33 | 52.35629 | 13.50432 | 154 ft | 29 kts | 70° |
| 2026-05-07 10:34 | 52.35679 | 13.50621 | 154 ft | 25 kts | 64° |
| 2026-05-07 10:34 | 52.35850 | 13.50635 | 154 ft | 19 kts | 11° |
| 2026-05-07 10:34 | 52.35899 | 13.50749 | 154 ft | 19 kts | 70° |
| 2026-05-07 10:34 | 52.35956 | 13.50843 | 154 ft | 10 kts | 341° |
| 2026-05-07 10:35 | 52.35998 | 13.50816 | 155 ft | 1 kts | 339° |
| 2026-05-07 10:35 | 52.36000 | 13.50814 | 155 ft | 0 kts | 339° |